Aérodrome :
LOGIN :

S'inscrire | Disclaimer

   EN    FR    IT 

 










Légende :    VFR   VFR Marginal   IFR   IFR Intensif   IFR Très Intensif
Visi : 
Plafond : 
>= 8 km
>= 3000ft
5 à 8 km
1000 à 3000 ft
1500m à 5 km
500 à 1000 ft
800 à 1500m
200 à 500 ft
< 800m
< 200 ft
Symboles :   Orages  Brouillard  Fortes neiges  Fortes précipitations  Vent > 20 kt
SIGMETs :   Divers  Orages  Givrage  Turbulence  Onde Orograph.  Cendres Volcan.






- Altitude de l'aérodrome : 13 ft
- Code IATA : CEQ


LFMD - Cannes Mandelieu

DERNIER METAR :
  • 110400Z AUTO VRB02KT 9999 FEW014 SCT052 BKN066 15/14 Q1010 TEMPO VRB15KT 2000 TSRA BKN008 BKN033CB

METARs EXPIRÉS :
  • 110330Z AUTO 16004KT 110V180 9999 FEW010/// BKN015/// BKN021/// ///TCU 16/15 Q1011 TEMPO VRB15KT 2000 TSRA BKN008 BKN033CB
  • 110300Z AUTO VRB03KT 9999 BKN014 BKN019 BKN024 16/15 Q1010 TEMPO VRB15KT 2000 TSRA BKN008 BKN033CB
  • 110230Z AUTO VRB02KT 9999 BKN020/// BKN029/// BKN041/// ///TCU 16/15 Q1010
  • 110200Z AUTO 00000KT 9999 FEW009/// SCT015/// BKN024/// ///TCU 16/15 Q1011
  • 110130Z AUTO VRB02KT 8000 BKN015 OVC020 16/15 Q1011

TAF TAF LFMD
Valide du 11 à 03h jusqu'au 12 à 03h UTC


110200Z 1103/1203 VRB05KT 9999 OVC025
TEMPO 1103/1117 VRB15KT 2000 TSRA BKN008 BKN033CB
ATIS : +33 4 93 48 73 23



MET'MAP, la Météo Aéronautique d'un coup d'oeil ! - Copyright ORBIFLY Décembre 2007 - Disclaimer

ORBIFLY MET'MAP TEAM :

Programmation & Développement : Alexandra Zaïnal
Sur une idée originale de : Baudouin d'Aumeries
Assistance à la programmation : Marc-Olivier Méhu
Soutien technique & logistique : Manuel Goepfert

Contact : metmap@orbifly.com




SOURCES & CREDITS :

   NOAA